Terminal Aerodrome Forecast
Issued by NWS Louisville, KY

Home | Current Version | Previous Version | Text Only | Print | Product List | Glossary On
Versions: 1 2 3 4 5 6 7 8 9 10 11 12 13 14 15
000
FTUS43 KLMK 181732
TAFSDF
TAF
KSDF 181732Z 1818/1924 28010KT P6SM SCT050
     FM190000 25005KT P6SM FEW250
     FM190600 20003KT P6SM SCT150
     FM191300 21005KT P6SM SCT060 SCT200
     FM191900 27007KT P6SM FEW060 FEW200=

USA.gov is the U.S. government's official web portal to all federal, state and local government web resources and services.